Time;durP1;ratioP1;P1;durP2;ratioP2;P2;SDS_P1;SDS_P2;PMS_P1;PMS_P2;Temp;Humidity;BMP_temperature;BMP_pressure;BME280_temperature;BME280_humidity;BME280_pressure;Samples;Min_cycle;Max_cycle;Signal;HPM_P1;HPM_P2
2023/12/19 00:01:32;;;;;;;43.25;15.85;;;;;;;;;;5029632;28;20024;-78
2023/12/19 00:03:58;;;;;;;45.15;15.85;;;;;;;;;;5030105;28;20013;-78
2023/12/19 00:06:24;;;;;;;45.00;15.68;;;;;;;;;;5018979;28;20097;-77
2023/12/19 00:08:50;;;;;;;42.63;16.38;;;;;;;;;;5028381;28;20024;-77
2023/12/19 00:11:16;;;;;;;39.00;15.23;;;;;;;;;;5029266;28;20018;-77
2023/12/19 00:13:42;;;;;;;41.95;15.30;;;;;;;;;;5024113;28;20076;-77
2023/12/19 00:16:09;;;;;;;48.35;16.15;;;;;;;;;;5029535;28;20033;-77
2023/12/19 00:18:35;;;;;;;39.67;15.35;;;;;;;;;;5021368;28;20112;-77
2023/12/19 00:21:01;;;;;;;42.63;15.10;;;;;;;;;;5028075;28;20044;-77
2023/12/19 00:23:30;;;;;;;41.03;14.77;;;;;;;;;;5029463;28;20022;-77
2023/12/19 00:25:57;;;;;;;34.60;14.30;;;;;;;;;;5009820;28;20056;-77
2023/12/19 00:28:23;;;;;;;41.10;15.90;;;;;;;;;;5009572;28;20266;-77
2023/12/19 00:30:49;;;;;;;36.65;14.13;;;;;;;;;;5024477;28;20075;-77
2023/12/19 00:33:15;;;;;;;37.90;14.32;;;;;;;;;;5021111;28;20449;-77
2023/12/19 00:35:41;;;;;;;36.42;14.15;;;;;;;;;;5009286;28;20055;-77
2023/12/19 00:38:07;;;;;;;36.63;13.68;;;;;;;;;;5007490;28;20377;-78
2023/12/19 00:40:33;;;;;;;37.65;15.27;;;;;;;;;;5022127;28;20527;-77
2023/12/19 00:42:59;;;;;;;39.00;14.57;;;;;;;;;;5027799;28;20490;-77
2023/12/19 00:45:25;;;;;;;39.33;14.63;;;;;;;;;;5027632;28;20085;-78
2023/12/19 00:47:51;;;;;;;38.08;15.70;;;;;;;;;;5028766;28;20022;-77
2023/12/19 00:50:18;;;;;;;34.38;14.88;;;;;;;;;;5019635;28;20144;-77
2023/12/19 00:52:44;;;;;;;40.75;15.38;;;;;;;;;;5007936;28;20026;-78
2023/12/19 00:55:10;;;;;;;34.05;14.27;;;;;;;;;;5016630;28;20029;-77
2023/12/19 00:57:36;;;;;;;35.65;14.63;;;;;;;;;;5027622;28;20357;-77
2023/12/19 01:00:02;;;;;;;30.48;14.38;;;;;;;;;;5022873;28;20096;-77
2023/12/19 01:02:29;;;;;;;33.40;14.13;;;;;;;;;;5005752;28;20017;-77
2023/12/19 01:04:57;;;;;;;30.95;13.73;;;;;;;;;;5022565;28;20049;-77
2023/12/19 01:07:24;;;;;;;29.38;13.23;;;;;;;;;;5028482;28;20099;-77
2023/12/19 01:09:50;;;;;;;22.85;11.73;;;;;;;;;;5024941;28;20033;-77
2023/12/19 01:12:18;;;;;;;25.02;12.07;;;;;;;;;;5007451;28;20386;-77
2023/12/19 01:14:44;;;;;;;26.08;11.85;;;;;;;;;;5010768;28;20017;-77
2023/12/19 01:17:10;;;;;;;26.95;11.88;;;;;;;;;;5018907;28;20492;-77
2023/12/19 01:19:37;;;;;;;22.45;11.50;;;;;;;;;;5007264;28;20105;-77
2023/12/19 01:22:03;;;;;;;22.42;11.52;;;;;;;;;;5027021;28;20024;-77
2023/12/19 01:24:29;;;;;;;25.25;12.27;;;;;;;;;;5028203;28;20018;-77
2023/12/19 01:26:55;;;;;;;22.23;11.68;;;;;;;;;;5008706;28;20017;-77
2023/12/19 01:29:22;;;;;;;21.55;11.50;;;;;;;;;;5008542;28;20014;-77
2023/12/19 01:31:48;;;;;;;18.13;10.38;;;;;;;;;;5009157;28;20029;-77
2023/12/19 01:34:14;;;;;;;24.10;11.45;;;;;;;;;;5007223;28;20010;-77
2023/12/19 01:36:41;;;;;;;23.10;11.63;;;;;;;;;;5021933;28;20545;-77
2023/12/19 01:39:08;;;;;;;21.30;11.52;;;;;;;;;;5028099;28;20022;-78
2023/12/19 01:41:34;;;;;;;24.40;11.50;;;;;;;;;;5025695;28;20021;-77
2023/12/19 01:44:00;;;;;;;21.48;10.88;;;;;;;;;;5027104;28;20006;-77
2023/12/19 01:46:26;;;;;;;22.63;11.70;;;;;;;;;;5017529;28;20018;-77
2023/12/19 01:48:52;;;;;;;28.38;12.68;;;;;;;;;;5006161;28;20025;-77
2023/12/19 01:51:18;;;;;;;24.00;11.52;;;;;;;;;;5014519;28;20009;-77
2023/12/19 01:53:47;;;;;;;25.38;11.73;;;;;;;;;;5027799;28;20397;-78
2023/12/19 01:56:13;;;;;;;24.33;11.85;;;;;;;;;;5019661;28;20022;-77
2023/12/19 01:58:39;;;;;;;25.38;12.50;;;;;;;;;;5008006;28;20018;-77
2023/12/19 02:01:06;;;;;;;22.67;11.45;;;;;;;;;;5011281;28;20017;-78
2023/12/19 02:03:32;;;;;;;26.92;12.25;;;;;;;;;;5027851;28;20080;-77
2023/12/19 02:05:59;;;;;;;24.08;11.68;;;;;;;;;;5023463;28;20101;-77
2023/12/19 02:08:27;;;;;;;24.55;11.73;;;;;;;;;;5007778;28;20486;-77
2023/12/19 02:10:53;;;;;;;24.70;12.07;;;;;;;;;;5010525;28;20071;-77
2023/12/19 02:13:21;;;;;;;22.42;11.00;;;;;;;;;;5027351;28;20021;-77
2023/12/19 02:15:47;;;;;;;24.08;10.98;;;;;;;;;;5027037;28;20091;-77
2023/12/19 02:18:14;;;;;;;24.88;11.57;;;;;;;;;;5027159;28;20030;-77
2023/12/19 02:20:40;;;;;;;21.25;10.20;;;;;;;;;;5026920;28;20017;-77
2023/12/19 02:23:06;;;;;;;19.85;10.55;;;;;;;;;;5006437;28;20049;-77
2023/12/19 02:25:32;;;;;;;21.90;10.68;;;;;;;;;;5007252;28;20031;-77
2023/12/19 02:28:00;;;;;;;22.17;11.25;;;;;;;;;;5025678;28;20028;-77
2023/12/19 02:30:26;;;;;;;22.40;11.73;;;;;;;;;;5006418;28;20022;-77
2023/12/19 02:32:54;;;;;;;22.00;10.80;;;;;;;;;;5013135;28;20485;-77
2023/12/19 02:35:19;;;;;;;24.05;12.23;;;;;;;;;;5007635;28;20068;-77
2023/12/19 02:37:47;;;;;;;24.02;11.18;;;;;;;;;;5025895;28;20049;-77
2023/12/19 02:40:13;;;;;;;23.60;11.20;;;;;;;;;;5027422;28;20089;-77
2023/12/19 02:42:42;;;;;;;25.23;12.27;;;;;;;;;;5010883;28;20030;-77
2023/12/19 02:45:09;;;;;;;23.35;12.35;;;;;;;;;;5006650;28;20025;-77
2023/12/19 02:47:35;;;;;;;21.50;11.13;;;;;;;;;;5021991;28;20081;-77
2023/12/19 02:50:01;;;;;;;22.10;11.60;;;;;;;;;;5025929;28;20537;-77
2023/12/19 02:52:27;;;;;;;24.35;12.15;;;;;;;;;;5013425;28;20391;-77
2023/12/19 02:54:53;;;;;;;24.83;12.27;;;;;;;;;;5006363;28;20470;-77
2023/12/19 02:57:19;;;;;;;24.42;12.88;;;;;;;;;;5018519;28;20029;-77
2023/12/19 02:59:45;;;;;;;25.05;12.38;;;;;;;;;;5027742;28;20371;-77
2023/12/19 03:02:12;;;;;;;26.45;12.25;;;;;;;;;;5021352;28;20018;-77
2023/12/19 03:04:41;;;;;;;30.17;13.95;;;;;;;;;;5011380;28;20101;-77
2023/12/19 03:07:08;;;;;;;27.67;12.88;;;;;;;;;;5018338;28;20021;-77
2023/12/19 03:09:34;;;;;;;25.23;12.77;;;;;;;;;;5029506;28;20439;-77
2023/12/19 03:12:03;;;;;;;27.80;13.50;;;;;;;;;;5025409;28;20033;-77
2023/12/19 03:14:29;;;;;;;26.30;12.23;;;;;;;;;;5009896;28;20093;-77
2023/12/19 03:16:55;;;;;;;24.35;10.93;;;;;;;;;;5014874;28;20033;-77
2023/12/19 03:19:21;;;;;;;26.48;11.63;;;;;;;;;;5029445;28;20009;-77
2023/12/19 03:21:47;;;;;;;23.98;12.15;;;;;;;;;;5026371;28;20029;-77
2023/12/19 03:24:13;;;;;;;23.35;11.57;;;;;;;;;;5009365;28;20014;-77
2023/12/19 03:26:39;;;;;;;24.67;11.55;;;;;;;;;;5022004;28;20005;-77
2023/12/19 03:29:05;;;;;;;23.40;10.35;;;;;;;;;;5030537;28;20417;-77
2023/12/19 03:31:31;;;;;;;23.63;11.70;;;;;;;;;;5030310;28;20029;-77
2023/12/19 03:33:57;;;;;;;22.02;11.00;;;;;;;;;;5028981;28;20326;-77
2023/12/19 03:36:23;;;;;;;20.63;10.43;;;;;;;;;;5024104;28;20021;-77
2023/12/19 03:38:50;;;;;;;21.42;10.63;;;;;;;;;;5026937;28;20013;-77
2023/12/19 03:41:16;;;;;;;19.25;10.02;;;;;;;;;;5030298;28;20343;-77
2023/12/19 03:43:42;;;;;;;21.90;10.43;;;;;;;;;;5014234;28;20018;-77
2023/12/19 03:46:08;;;;;;;19.35;9.60;;;;;;;;;;5009002;28;20014;-77
2023/12/19 03:48:34;;;;;;;19.77;9.63;;;;;;;;;;5022069;28;20056;-77
2023/12/19 03:51:00;;;;;;;18.65;9.52;;;;;;;;;;5028666;28;20409;-77
2023/12/19 03:53:27;;;;;;;21.23;10.23;;;;;;;;;;5018491;28;20246;-77
2023/12/19 03:55:53;;;;;;;18.77;9.88;;;;;;;;;;5010269;28;20080;-77
2023/12/19 03:58:19;;;;;;;24.10;11.02;;;;;;;;;;5020385;28;20021;-77
2023/12/19 04:00:45;;;;;;;27.77;11.57;;;;;;;;;;5028563;28;20017;-77
2023/12/19 04:03:11;;;;;;;21.25;10.05;;;;;;;;;;5020902;28;20029;-77
2023/12/19 04:05:37;;;;;;;23.05;10.88;;;;;;;;;;5008789;28;20025;-77
2023/12/19 04:08:03;;;;;;;23.35;10.73;;;;;;;;;;5006474;28;20460;-77
2023/12/19 04:10:29;;;;;;;20.67;10.40;;;;;;;;;;5009789;28;21062;-77
2023/12/19 04:12:55;;;;;;;21.50;10.45;;;;;;;;;;5015628;28;20025;-77
2023/12/19 04:15:22;;;;;;;20.92;10.30;;;;;;;;;;5028358;28;20707;-77
2023/12/19 04:17:48;;;;;;;21.77;10.02;;;;;;;;;;5011549;28;20075;-77
2023/12/19 04:20:14;;;;;;;20.77;9.77;;;;;;;;;;5028208;28;20010;-77
2023/12/19 04:22:40;;;;;;;19.67;9.60;;;;;;;;;;5028950;28;20028;-77
2023/12/19 04:25:06;;;;;;;24.00;10.00;;;;;;;;;;5028286;28;20021;-77
2023/12/19 04:27:32;;;;;;;21.17;9.55;;;;;;;;;;5028881;28;20199;-77
2023/12/19 04:29:58;;;;;;;19.17;9.15;;;;;;;;;;5009533;28;20018;-77
2023/12/19 04:32:24;;;;;;;21.00;9.82;;;;;;;;;;5008029;28;20089;-77
2023/12/19 04:34:50;;;;;;;22.98;10.23;;;;;;;;;;5008330;28;20018;-78
2023/12/19 04:37:16;;;;;;;22.15;9.80;;;;;;;;;;5010030;28;20512;-77
2023/12/19 04:39:42;;;;;;;19.23;9.13;;;;;;;;;;5023798;28;20025;-77
2023/12/19 04:42:08;;;;;;;17.77;8.65;;;;;;;;;;5014528;28;20100;-77
2023/12/19 04:44:34;;;;;;;17.58;9.25;;;;;;;;;;5028149;28;20042;-77
2023/12/19 04:47:01;;;;;;;19.13;8.88;;;;;;;;;;5028989;28;20009;-77
2023/12/19 04:49:27;;;;;;;19.98;9.77;;;;;;;;;;5016428;28;20022;-77
2023/12/19 04:51:53;;;;;;;21.88;9.90;;;;;;;;;;5007801;28;20026;-77
2023/12/19 04:54:19;;;;;;;23.95;10.20;;;;;;;;;;5020070;28;20084;-77
2023/12/19 04:56:45;;;;;;;21.08;9.85;;;;;;;;;;5027914;28;20021;-77
2023/12/19 04:59:11;;;;;;;19.60;9.02;;;;;;;;;;5018222;28;20018;-77
2023/12/19 05:01:40;;;;;;;19.90;9.38;;;;;;;;;;5009034;28;20022;-77
2023/12/19 05:04:09;;;;;;;16.52;8.75;;;;;;;;;;5015522;28;20021;-77
2023/12/19 05:06:35;;;;;;;17.63;9.05;;;;;;;;;;5027469;28;20091;-77
2023/12/19 05:09:01;;;;;;;17.70;8.70;;;;;;;;;;5028799;28;20063;-77
2023/12/19 05:11:27;;;;;;;16.98;8.70;;;;;;;;;;5018840;28;20014;-77
2023/12/19 05:13:53;;;;;;;19.38;8.65;;;;;;;;;;5028316;28;20482;-77
2023/12/19 05:16:19;;;;;;;17.65;8.57;;;;;;;;;;5027210;28;20108;-77
2023/12/19 05:18:46;;;;;;;15.13;8.02;;;;;;;;;;5024743;28;20064;-77
2023/12/19 05:21:12;;;;;;;17.10;7.43;;;;;;;;;;5008486;28;20065;-77
2023/12/19 05:23:39;;;;;;;15.88;7.43;;;;;;;;;;5010999;28;20022;-77
2023/12/19 05:26:05;;;;;;;14.98;7.38;;;;;;;;;;5027079;28;20045;-77
2023/12/19 05:28:32;;;;;;;14.50;7.47;;;;;;;;;;5027278;28;20009;-77
2023/12/19 05:30:58;;;;;;;14.10;6.95;;;;;;;;;;5007207;28;20052;-77
2023/12/19 05:33:27;;;;;;;14.65;6.68;;;;;;;;;;5026750;28;20033;-77
2023/12/19 05:35:53;;;;;;;16.42;7.55;;;;;;;;;;5028379;28;20018;-77
2023/12/19 05:38:20;;;;;;;12.25;6.70;;;;;;;;;;5027914;28;20044;-77
2023/12/19 05:40:46;;;;;;;11.68;6.63;;;;;;;;;;5009661;28;20577;-77
2023/12/19 05:43:15;;;;;;;11.77;6.13;;;;;;;;;;5007198;28;20036;-77
2023/12/19 05:45:41;;;;;;;13.35;6.82;;;;;;;;;;5015991;28;20046;-77
2023/12/19 05:48:08;;;;;;;14.93;7.20;;;;;;;;;;5007236;28;20482;-77
2023/12/19 05:50:34;;;;;;;14.45;6.65;;;;;;;;;;5026745;28;20029;-78
2023/12/19 05:53:00;;;;;;;14.63;6.50;;;;;;;;;;5027805;28;20037;-77
2023/12/19 05:55:26;;;;;;;13.50;6.82;;;;;;;;;;5027088;28;20023;-77
2023/12/19 05:57:52;;;;;;;12.52;6.72;;;;;;;;;;5026004;28;20523;-77
2023/12/19 06:00:19;;;;;;;14.50;6.90;;;;;;;;;;5026551;28;20064;-77
2023/12/19 06:02:45;;;;;;;15.90;7.07;;;;;;;;;;5026341;28;20018;-77
2023/12/19 06:05:12;;;;;;;14.40;6.72;;;;;;;;;;5024383;28;20021;-77
2023/12/19 06:07:38;;;;;;;15.63;7.20;;;;;;;;;;5010537;28;20121;-77
2023/12/19 06:10:08;;;;;;;15.93;7.13;;;;;;;;;;5014287;28;20026;-77
2023/12/19 06:12:34;;;;;;;16.33;6.90;;;;;;;;;;5026423;28;20017;-77
2023/12/19 06:15:00;;;;;;;14.52;5.93;;;;;;;;;;5019527;28;20025;-80
2023/12/19 06:17:26;;;;;;;10.15;5.22;;;;;;;;;;5006569;28;20093;-78
2023/12/19 06:19:52;;;;;;;11.77;5.45;;;;;;;;;;5005294;28;20221;-77
2023/12/19 06:22:18;;;;;;;16.73;6.05;;;;;;;;;;4999303;28;20481;-77
2023/12/19 06:24:45;;;;;;;33.58;7.28;;;;;;;;;;4996851;28;20116;-77
2023/12/19 06:27:15;;;;;;;11.75;5.32;;;;;;;;;;4999185;28;20052;-77
2023/12/19 06:29:41;;;;;;;;;;;;;;;;;;4997206;28;20022;-78
2023/12/19 06:32:09;;;;;;;8.50;4.75;;;;;;;;;;4998030;28;19948;-77
2023/12/19 06:34:35;;;;;;;9.23;5.10;;;;;;;;;;4996728;28;20024;-77
2023/12/19 06:37:02;;;;;;;11.32;5.00;;;;;;;;;;4996990;28;20011;-78
2023/12/19 06:39:28;;;;;;;9.85;4.93;;;;;;;;;;4998105;28;20041;-78
2023/12/19 06:41:54;;;;;;;9.38;5.07;;;;;;;;;;4997938;28;20014;-78
2023/12/19 06:44:20;;;;;;;10.98;4.88;;;;;;;;;;5005111;28;20007;-78
2023/12/19 06:46:49;;;;;;;12.05;5.10;;;;;;;;;;5026788;28;20021;-77
2023/12/19 06:49:18;;;;;;;10.52;5.10;;;;;;;;;;5016469;28;20166;-78
2023/12/19 06:51:44;;;;;;;13.95;4.90;;;;;;;;;;5015769;28;20026;-77
2023/12/19 06:54:10;;;;;;;16.52;4.90;;;;;;;;;;5009980;28;20026;-77
2023/12/19 06:56:36;;;;;;;27.33;6.05;;;;;;;;;;5014808;28;20477;-77
2023/12/19 06:59:04;;;;;;;12.30;5.85;;;;;;;;;;5030053;28;20018;-77
2023/12/19 07:01:30;;;;;;;9.88;4.68;;;;;;;;;;5014780;28;20013;-76
2023/12/19 07:03:56;;;;;;;8.63;4.03;;;;;;;;;;5020218;28;20022;-77
2023/12/19 07:06:22;;;;;;;8.45;4.22;;;;;;;;;;5012880;28;20018;-77
2023/12/19 07:08:48;;;;;;;7.07;3.88;;;;;;;;;;5019179;28;20014;-77
2023/12/19 07:11:14;;;;;;;28.25;5.63;;;;;;;;;;5000609;28;20014;-77
2023/12/19 07:13:40;;;;;;;87.05;8.00;;;;;;;;;;5010608;28;20030;-77
2023/12/19 07:16:07;;;;;;;29.30;5.85;;;;;;;;;;5010530;28;20022;-77
2023/12/19 07:18:33;;;;;;;11.02;4.10;;;;;;;;;;5009956;28;20021;-78
2023/12/19 07:20:59;;;;;;;8.27;3.63;;;;;;;;;;5012157;28;20014;-78
2023/12/19 07:23:25;;;;;;;8.23;4.15;;;;;;;;;;5010828;28;20068;-79
2023/12/19 07:25:51;;;;;;;10.95;4.47;;;;;;;;;;5015719;28;20025;-76
2023/12/19 07:28:17;;;;;;;8.63;4.10;;;;;;;;;;5029527;28;20029;-76
2023/12/19 07:30:43;;;;;;;9.70;4.07;;;;;;;;;;5029959;28;20017;-75
2023/12/19 07:33:09;;;;;;;12.38;4.10;;;;;;;;;;5029188;28;20026;-79
2023/12/19 07:35:35;;;;;;;10.27;4.47;;;;;;;;;;5018913;28;20048;-79
2023/12/19 07:38:01;;;;;;;7.82;4.28;;;;;;;;;;5030429;28;20091;-78
2023/12/19 07:40:27;;;;;;;6.55;3.53;;;;;;;;;;5028802;28;20009;-78
2023/12/19 07:42:54;;;;;;;8.48;4.22;;;;;;;;;;5023368;28;20484;-78
2023/12/19 07:45:20;;;;;;;7.88;4.00;;;;;;;;;;5006998;28;20275;-81
2023/12/19 07:47:46;;;;;;;8.02;3.65;;;;;;;;;;5004211;28;20501;-78
2023/12/19 07:50:12;;;;;;;11.15;4.20;;;;;;;;;;5023899;28;20100;-80
2023/12/19 07:52:38;;;;;;;7.85;3.67;;;;;;;;;;5005990;28;20041;-79
2023/12/19 07:55:09;;;;;;;11.77;4.65;;;;;;;;;;5003199;28;20197;-79
2023/12/19 07:57:36;;;;;;;12.07;5.28;;;;;;;;;;5002269;28;20013;-79
2023/12/19 08:00:03;;;;;;;12.55;6.00;;;;;;;;;;5001709;28;20497;-80
2023/12/19 08:02:30;;;;;;;10.02;5.05;;;;;;;;;;5025307;28;20026;-80
2023/12/19 08:04:56;;;;;;;9.43;4.80;;;;;;;;;;5006465;28;20014;-79
2023/12/19 08:07:23;;;;;;;10.23;5.22;;;;;;;;;;5003349;28;20025;-79
2023/12/19 08:09:49;;;;;;;12.15;4.97;;;;;;;;;;4999828;28;21210;-79
2023/12/19 08:12:15;;;;;;;0.20;0.13;;;;;;;;;;5003136;28;20018;-79
2023/12/19 08:14:41;;;;;;;0.00;0.00;;;;;;;;;;5000287;28;20014;-80
2023/12/19 08:17:07;;;;;;;11.13;5.78;;;;;;;;;;4998686;28;20044;-79
2023/12/19 08:19:33;;;;;;;12.60;5.00;;;;;;;;;;5003530;28;20019;-79
2023/12/19 08:21:59;;;;;;;11.25;4.65;;;;;;;;;;4999672;28;20017;-79
2023/12/19 08:24:25;;;;;;;10.70;5.03;;;;;;;;;;4998788;28;20021;-79
2023/12/19 08:26:52;;;;;;;10.95;5.72;;;;;;;;;;4999756;28;20038;-79
2023/12/19 08:29:18;;;;;;;13.75;6.35;;;;;;;;;;5005716;28;20366;-79
2023/12/19 08:31:46;;;;;;;10.35;6.00;;;;;;;;;;5009059;28;20105;-79
2023/12/19 08:34:12;;;;;;;13.07;6.63;;;;;;;;;;5005344;28;20034;-80
2023/12/19 08:36:38;;;;;;;15.07;5.30;;;;;;;;;;5000387;28;20032;-79
2023/12/19 08:39:07;;;;;;;14.15;5.53;;;;;;;;;;4999578;28;21023;-79
2023/12/19 08:41:34;;;;;;;18.00;5.18;;;;;;;;;;4997912;28;20010;-79
2023/12/19 08:44:00;;;;;;;16.75;5.55;;;;;;;;;;4998730;28;20038;-79
2023/12/19 08:46:26;;;;;;;19.45;5.68;;;;;;;;;;5003098;28;20006;-80
2023/12/19 08:48:52;;;;;;;25.92;5.40;;;;;;;;;;5009555;28;20020;-80
2023/12/19 08:51:18;;;;;;;25.05;5.65;;;;;;;;;;5009478;28;20022;-80
2023/12/19 08:53:44;;;;;;;14.98;4.82;;;;;;;;;;5010512;28;20109;-79
2023/12/19 08:56:10;;;;;;;20.23;5.65;;;;;;;;;;5003084;28;20014;-79
2023/12/19 08:58:36;;;;;;;22.58;5.70;;;;;;;;;;5004115;28;20458;-78
2023/12/19 09:01:03;;;;;;;19.65;6.00;;;;;;;;;;5008510;28;20021;-78
2023/12/19 09:03:29;;;;;;;23.55;5.97;;;;;;;;;;5010321;28;20030;-79
2023/12/19 09:05:55;;;;;;;24.77;5.65;;;;;;;;;;5008044;28;20127;-80
2023/12/19 09:08:23;;;;;;;19.25;5.65;;;;;;;;;;5017138;28;20646;-79
2023/12/19 09:10:49;;;;;;;23.15;6.00;;;;;;;;;;5021896;28;20516;-79
2023/12/19 09:13:16;;;;;;;20.88;5.85;;;;;;;;;;5021335;28;20014;-79
2023/12/19 09:15:44;;;;;;;20.88;5.85;;;;;;;;;;5007121;28;20057;-79
2023/12/19 09:18:10;;;;;;;21.20;6.10;;;;;;;;;;5019851;28;20042;-79
2023/12/19 09:20:36;;;;;;;18.63;5.68;;;;;;;;;;5027116;28;20018;-79
2023/12/19 09:23:02;;;;;;;15.07;5.10;;;;;;;;;;5017925;28;20026;-79
2023/12/19 09:25:29;;;;;;;15.50;5.65;;;;;;;;;;5007314;28;20028;-80
2023/12/19 09:27:55;;;;;;;26.20;6.03;;;;;;;;;;5015573;28;20044;-79
2023/12/19 09:30:22;;;;;;;16.65;5.45;;;;;;;;;;5027386;28;20021;-80
2023/12/19 09:32:48;;;;;;;13.77;5.18;;;;;;;;;;5019950;28;20080;-79
2023/12/19 09:35:14;;;;;;;16.63;5.55;;;;;;;;;;5007271;28;20014;-79
2023/12/19 09:37:40;;;;;;;17.20;5.22;;;;;;;;;;5012865;28;20040;-79
2023/12/19 09:40:07;;;;;;;13.05;5.72;;;;;;;;;;5027233;28;20005;-79
2023/12/19 09:42:33;;;;;;;19.08;6.10;;;;;;;;;;5023272;28;20382;-79
2023/12/19 09:44:59;;;;;;;13.95;5.55;;;;;;;;;;5008609;28;20022;-79
2023/12/19 09:47:28;;;;;;;16.95;6.10;;;;;;;;;;5009522;28;20018;-79
2023/12/19 09:49:57;;;;;;;13.80;5.32;;;;;;;;;;5026830;28;20025;-79
2023/12/19 09:52:24;;;;;;;18.70;5.93;;;;;;;;;;5014090;28;20473;-79
2023/12/19 09:54:51;;;;;;;16.25;5.43;;;;;;;;;;5005084;28;20527;-79
2023/12/19 09:57:21;;;;;;;14.68;5.65;;;;;;;;;;5003188;28;20104;-79
2023/12/19 09:59:47;;;;;;;;;;;;;;;;;;5006870;28;20081;-79
2023/12/19 10:02:19;;;;;;;13.93;5.97;;;;;;;;;;5005117;28;19901;-79
2023/12/19 10:04:48;;;;;;;13.32;5.82;;;;;;;;;;5004100;28;20072;-79
2023/12/19 10:07:14;;;;;;;17.55;4.63;;;;;;;;;;5002173;28;20035;-79
2023/12/19 10:09:51;;;;;;;15.50;5.55;;;;;;;;;;5001394;28;20025;-79
2023/12/19 10:12:17;;;;;;;13.48;4.97;;;;;;;;;;4999637;28;20026;-79
2023/12/19 10:14:46;;;;;;;13.10;4.72;;;;;;;;;;5006964;28;20014;-79
2023/12/19 10:17:14;;;;;;;11.45;4.60;;;;;;;;;;5013536;28;20438;-79
2023/12/19 10:19:41;;;;;;;13.52;4.70;;;;;;;;;;5009542;28;20025;-79
2023/12/19 10:22:07;;;;;;;14.55;6.40;;;;;;;;;;5012580;28;20022;-79
2023/12/19 10:24:34;;;;;;;12.52;5.65;;;;;;;;;;5017044;28;20024;-79
2023/12/19 10:27:00;;;;;;;9.18;4.28;;;;;;;;;;5009078;28;20017;-79
2023/12/19 10:29:28;;;;;;;10.57;4.20;;;;;;;;;;5023241;28;20024;-78
2023/12/19 10:31:54;;;;;;;12.40;4.30;;;;;;;;;;5019440;28;20033;-78
2023/12/19 10:34:22;;;;;;;9.65;3.97;;;;;;;;;;5003232;28;20033;-77
2023/12/19 10:36:49;;;;;;;13.65;4.65;;;;;;;;;;5002954;28;20042;-78
2023/12/19 10:39:18;;;;;;;13.25;5.00;;;;;;;;;;5005417;28;20473;-78
2023/12/19 10:41:44;;;;;;;12.52;5.03;;;;;;;;;;5003689;28;20508;-78
2023/12/19 10:44:11;;;;;;;10.43;4.70;;;;;;;;;;5004575;28;20030;-78
2023/12/19 10:46:38;;;;;;;11.85;5.10;;;;;;;;;;5003700;28;20064;-78
2023/12/19 10:49:05;;;;;;;12.15;5.07;;;;;;;;;;4993622;28;20084;-78
2023/12/19 10:51:35;;;;;;;11.88;5.28;;;;;;;;;;4997263;28;20021;-78
2023/12/19 10:54:06;;;;;;;11.95;5.55;;;;;;;;;;5001893;28;20030;-78
2023/12/19 10:56:37;;;;;;;12.05;5.10;;;;;;;;;;5005029;28;20026;-78
2023/12/19 10:59:07;;;;;;;11.82;5.00;;;;;;;;;;5002479;28;20108;-78
2023/12/19 11:01:39;;;;;;;13.13;4.90;;;;;;;;;;5004884;28;20033;-78
2023/12/19 11:04:10;;;;;;;9.80;4.93;;;;;;;;;;4999629;28;20021;-78
2023/12/19 11:06:37;;;;;;;8.13;4.00;;;;;;;;;;5000781;28;20021;-78
2023/12/19 11:09:05;;;;;;;11.13;4.60;;;;;;;;;;4996041;28;20033;-78
2023/12/19 11:11:38;;;;;;;11.10;4.85;;;;;;;;;;5002858;28;20466;-78
2023/12/19 11:14:07;;;;;;;8.00;4.07;;;;;;;;;;5008660;28;20022;-78
2023/12/19 11:16:42;;;;;;;7.35;4.05;;;;;;;;;;5021358;28;20052;-79
2023/12/19 11:19:25;;;;;;;6.18;3.58;;;;;;;;;;5026319;28;20529;-75
2023/12/19 11:21:57;;;;;;;6.72;2.63;;;;;;;;;;5025537;28;20476;-75
2023/12/19 11:24:29;;;;;;;6.90;2.13;;;;;;;;;;5016055;28;20029;-75
2023/12/19 11:27:10;;;;;;;2.92;1.63;;;;;;;;;;5012924;28;20017;-75
2023/12/19 11:29:44;;;;;;;3.03;1.20;;;;;;;;;;5029267;28;20017;-75
2023/12/19 11:32:29;;;;;;;1.00;0.90;;;;;;;;;;5002346;28;20080;-75
2023/12/19 11:35:09;;;;;;;4.18;1.17;;;;;;;;;;5003789;28;20051;-74
2023/12/19 11:37:35;;;;;;;2.45;1.02;;;;;;;;;;5006645;28;20276;-75
2023/12/19 11:40:01;;;;;;;3.83;1.30;;;;;;;;;;5006177;28;20026;-81
2023/12/19 11:42:39;;;;;;;1.10;0.80;;;;;;;;;;5011319;28;20026;-75
2023/12/19 11:45:17;;;;;;;3.78;1.10;;;;;;;;;;5002116;28;20034;-77
2023/12/19 11:47:44;;;;;;;2.05;0.95;;;;;;;;;;5024260;28;20108;-77
2023/12/19 11:50:15;;;;;;;3.88;1.00;;;;;;;;;;5017951;28;20033;-76
2023/12/19 11:52:42;;;;;;;4.70;1.17;;;;;;;;;;5006177;28;20013;-76
2023/12/19 11:55:08;;;;;;;4.00;1.25;;;;;;;;;;5002524;28;20378;-78
2023/12/19 11:57:34;;;;;;;5.28;1.40;;;;;;;;;;5005426;28;20010;-78
2023/12/19 12:00:01;;;;;;;4.25;1.20;;;;;;;;;;5005178;28;20117;-78
2023/12/19 12:02:32;;;;;;;4.63;1.25;;;;;;;;;;5000508;28;21174;-78
2023/12/19 12:04:57;;;;;;;;;;;;;;;;;;4998808;28;20029;-78
2023/12/19 12:07:24;;;;;;;4.07;1.95;;;;;;;;;;5002571;28;20214;-78
2023/12/19 12:09:50;;;;;;;6.72;1.75;;;;;;;;;;5000916;28;21019;-78
2023/12/19 12:12:16;;;;;;;5.60;1.70;;;;;;;;;;5005212;28;20014;-78
2023/12/19 12:14:42;;;;;;;5.65;1.70;;;;;;;;;;5004562;28;20618;-78
2023/12/19 12:17:09;;;;;;;5.30;1.48;;;;;;;;;;5004133;28;20131;-78
2023/12/19 12:19:35;;;;;;;4.55;1.80;;;;;;;;;;5005560;28;20511;-78
2023/12/19 12:22:01;;;;;;;4.20;1.30;;;;;;;;;;5008328;28;20050;-77
2023/12/19 12:24:28;;;;;;;2.88;1.30;;;;;;;;;;5006042;28;20013;-77
2023/12/19 12:27:09;;;;;;;2.47;0.95;;;;;;;;;;5004862;28;20385;-78
2023/12/19 12:29:38;;;;;;;5.03;0.98;;;;;;;;;;5003504;28;20064;-78
2023/12/19 12:32:04;;;;;;;3.63;0.80;;;;;;;;;;4998433;28;20021;-78
2023/12/19 12:34:34;;;;;;;2.95;0.88;;;;;;;;;;5022402;28;20020;-78
2023/12/19 12:37:00;;;;;;;1.55;0.90;;;;;;;;;;5006244;28;20053;-78
2023/12/19 12:39:26;;;;;;;2.67;0.90;;;;;;;;;;5007821;28;20164;-78
2023/12/19 12:42:00;;;;;;;2.97;0.70;;;;;;;;;;5019842;28;20033;-78
2023/12/19 12:44:26;;;;;;;4.60;0.90;;;;;;;;;;5009340;28;20390;-85
2023/12/19 12:46:52;;;;;;;2.75;0.82;;;;;;;;;;5014641;28;20080;-76
2023/12/19 12:49:19;;;;;;;2.80;1.00;;;;;;;;;;5006143;28;20052;-76
2023/12/19 12:51:46;;;;;;;4.65;0.95;;;;;;;;;;5021281;28;20793;-76
2023/12/19 12:54:16;;;;;;;4.35;0.82;;;;;;;;;;5001228;28;20052;-76
2023/12/19 12:56:42;;;;;;;2.08;0.77;;;;;;;;;;5018877;28;20018;-76
2023/12/19 12:59:09;;;;;;;1.38;0.73;;;;;;;;;;5020509;28;20040;-76
2023/12/19 13:01:36;;;;;;;2.60;0.90;;;;;;;;;;5020863;28;20485;-76
2023/12/19 13:04:05;;;;;;;1.83;0.75;;;;;;;;;;5012908;28;20025;-76
2023/12/19 13:06:31;;;;;;;2.92;1.05;;;;;;;;;;5027353;28;20513;-76
2023/12/19 13:08:57;;;;;;;4.72;0.90;;;;;;;;;;5009683;28;20026;-76
2023/12/19 13:11:24;;;;;;;2.03;0.95;;;;;;;;;;4995061;28;20117;-76
2023/12/19 13:13:50;;;;;;;3.63;0.95;;;;;;;;;;5003710;28;20434;-76
2023/12/19 13:16:16;;;;;;;2.28;0.80;;;;;;;;;;5006187;28;20052;-76
2023/12/19 13:18:44;;;;;;;4.00;1.40;;;;;;;;;;5000558;28;20117;-76
2023/12/19 13:21:11;;;;;;;5.15;1.05;;;;;;;;;;4999452;28;20355;-76
2023/12/19 13:23:37;;;;;;;4.90;1.20;;;;;;;;;;4997691;28;20025;-75
2023/12/19 13:26:03;;;;;;;3.20;0.98;;;;;;;;;;4998517;28;20010;-76
2023/12/19 13:28:30;;;;;;;1.83;0.80;;;;;;;;;;5002920;28;20060;-76
2023/12/19 13:30:56;;;;;;;3.22;1.08;;;;;;;;;;5000867;28;20573;-76
2023/12/19 13:33:22;;;;;;;3.67;1.17;;;;;;;;;;5005502;28;20382;-76
2023/12/19 13:35:48;;;;;;;2.80;1.20;;;;;;;;;;5004521;28;20023;-76
2023/12/19 13:38:15;;;;;;;1.75;0.90;;;;;;;;;;5009471;28;20022;-76
2023/12/19 13:40:42;;;;;;;4.25;1.23;;;;;;;;;;5020464;28;20006;-76
2023/12/19 13:43:08;;;;;;;6.78;1.20;;;;;;;;;;4995350;28;20022;-76
2023/12/19 13:45:34;;;;;;;3.53;1.20;;;;;;;;;;5022341;28;20113;-76
2023/12/19 13:48:01;;;;;;;4.60;1.00;;;;;;;;;;5002027;28;20029;-76
2023/12/19 13:50:28;;;;;;;5.72;1.30;;;;;;;;;;5000638;28;20028;-76
2023/12/19 13:52:54;;;;;;;2.47;1.17;;;;;;;;;;5003515;28;20026;-77
2023/12/19 13:55:20;;;;;;;11.38;1.02;;;;;;;;;;5006685;28;20045;-79
2023/12/19 13:57:46;;;;;;;7.68;1.20;;;;;;;;;;5023869;28;20018;-76
2023/12/19 14:00:17;;;;;;;4.95;1.33;;;;;;;;;;5026637;28;20021;-76
2023/12/19 14:02:43;;;;;;;6.78;1.23;;;;;;;;;;5011639;28;20046;-76
2023/12/19 14:05:09;;;;;;;4.05;1.20;;;;;;;;;;5008319;28;20399;-76
2023/12/19 14:07:36;;;;;;;6.25;1.30;;;;;;;;;;5010812;28;20072;-76
2023/12/19 14:10:04;;;;;;;12.30;1.48;;;;;;;;;;5008091;28;20397;-76
2023/12/19 14:12:30;;;;;;;5.50;1.80;;;;;;;;;;5005712;28;20026;-76
2023/12/19 14:14:56;;;;;;;8.75;2.08;;;;;;;;;;5014987;28;20028;-76
2023/12/19 14:17:23;;;;;;;6.63;2.15;;;;;;;;;;5019293;28;20057;-76
2023/12/19 14:19:49;;;;;;;14.43;2.67;;;;;;;;;;5007755;28;20006;-76
2023/12/19 14:22:16;;;;;;;8.93;3.28;;;;;;;;;;5018508;28;20014;-76
2023/12/19 14:24:42;;;;;;;9.68;2.60;;;;;;;;;;5017959;28;20006;-76
2023/12/19 14:27:08;;;;;;;13.02;2.95;;;;;;;;;;5011049;28;20277;-76
2023/12/19 14:29:34;;;;;;;11.73;3.03;;;;;;;;;;5006668;28;20269;-76